الصفحة الرئيسية
METAR-TAF:

METAR-TAF

مطار :

Balmaceda, تشيلي

دائرة عرض: 45-55S, خط طول: 071-41W, ارتفاع: 520 متر

مراقبة الطقس الحالي

تاريخ ووقت الإصدار 1ساعة و 33 دقيقة قبل الساعة 22:00UTC
ريح 18 عقدة من الشمال الغربي تتزايد حتى 28 عقدة
درجة الحرارة 8°درجة مئوية
الرطوبة 71%
ضغط 1010 hPa
الرؤية 10 كم أو أكثر
غيوم قليلة على ارتفاع 1000 قدم

METAR: SCBA 212200Z 32018G28KT 9999 FEW010 08/03 Q1010

زمن: 19:33 (23:33 UTC)

توقعات

تاريخ ووقت الإصدار 6ساعات و 35 دقيقة قبل الساعة 16:58UTC
التوقعات صالحة من21 الساعة 18 UTC إلى 22 الساعة 18 UTC
ريح 30 عقدة من الشمال الغربي تتزايد حتى 40 عقدة
الرؤية 10 كم أو أكثر
غيوم قليلة على ارتفاع 1000 قدم
أصبح
من 22 الساعة 10 UTC إلى 22 الساعة 12 UTC
ريح 20 عقدة من الغرب/الشمال الغربي تتزايد حتى 30 عقدة
غيوم مفككة على ارتفاع 4000 قدم

TAF: SCBA 211658Z 2118/2218 31030G40KT 9999 FEW010 TX09/2119Z TN06/2212Z BECMG 2210/2212 30020G30KT BKN040

أرصاد الطقس والتوقعات من أكثر من 4000 مطار (تقارير الطقس للمطار METAR والتنبؤ بالطقس بالمطارTAF).

المحطات المتاحة هي النقط الصفراء والحمراء على الخريطة.

حرك المؤشر فوق النقطة لمعرفة اسم المحطة.

ثم انقر لمعرفة أرصاد وتوقعات الطقس.

لتغيير الخارطة: اضغط على الأزرار الخضراء مع رمز الصليب الأسود للتكبير. على الزر الأخضر مع شرطة للتصغير، أو على الأسهم الخضراء للخرائط المجاورة.


METAR-TAF: